Time;durP1;ratioP1;P1;durP2;ratioP2;P2;SDS_P1;SDS_P2;PMS_P1;PMS_P2;Temp;Humidity;BMP_temperature;BMP_pressure;BME280_temperature;BME280_humidity;BME280_pressure;Samples;Min_cycle;Max_cycle;Signal;HPM_P1;HPM_P2
2024/03/07 00:02:08;;;;;;;;;;;2.60;99.90;;;;;;5021496;28;20017;-79
2024/03/07 00:04:35;;;;;;;;;;;2.60;99.90;;;;;;5022230;28;20036;-79
2024/03/07 00:07:02;;;;;;;;;;;2.60;99.90;;;;;;5021864;28;20043;-78
2024/03/07 00:09:27;;;;;;;;;;;2.70;99.90;;;;;;5021775;28;20918;-79
2024/03/07 00:11:53;;;;;;;;;;;2.60;99.90;;;;;;5021265;28;20048;-78
2024/03/07 00:14:19;;;;;;;;;;;2.60;99.90;;;;;;5019031;28;20089;-78
2024/03/07 00:16:45;;;;;;;;;;;2.60;99.90;;;;;;5018941;28;20084;-78
2024/03/07 00:19:10;;;;;;;;;;;2.60;99.90;;;;;;5016855;28;20094;-78
2024/03/07 00:21:36;;;;;;;;;;;2.60;99.90;;;;;;5020413;28;20495;-78
2024/03/07 00:24:01;;;;;;;;;;;2.70;99.90;;;;;;5021168;28;20005;-78
2024/03/07 00:26:27;;;;;;;;;;;2.60;99.90;;;;;;5021035;28;20540;-79
2024/03/07 00:28:53;;;;;;;;;;;2.60;99.90;;;;;;5017135;28;20511;-79
2024/03/07 00:31:18;;;;;;;;;;;2.60;99.90;;;;;;5021362;28;19990;-79
2024/03/07 00:33:44;;;;;;;;;;;2.60;99.90;;;;;;5022816;28;19997;-79
2024/03/07 00:36:09;;;;;;;;;;;2.60;99.90;;;;;;5021825;28;20347;-79
2024/03/07 00:38:35;;;;;;;;;;;2.50;99.90;;;;;;5021348;28;20093;-78
2024/03/07 00:41:00;;;;;;;;;;;2.50;99.90;;;;;;5020881;28;19999;-78
2024/03/07 00:43:26;;;;;;;;;;;2.40;99.90;;;;;;5021883;28;19993;-79
2024/03/07 00:45:51;;;;;;;;;;;2.40;99.90;;;;;;5004095;28;20814;-78
2024/03/07 00:48:17;;;;;;;;;;;2.40;99.90;;;;;;5021474;28;20433;-79
2024/03/07 00:50:43;;;;;;;;;;;2.40;99.90;;;;;;5020984;28;20060;-79
2024/03/07 00:53:10;;;;;;;;;;;2.30;99.90;;;;;;5021598;28;19998;-78
2024/03/07 00:55:35;;;;;;;;;;;2.30;99.90;;;;;;5021433;28;19990;-78
2024/03/07 00:58:01;;;;;;;;;;;2.30;99.90;;;;;;5023120;28;20000;-78
2024/03/07 01:00:28;;;;;;;;;;;2.20;99.90;;;;;;5022771;28;19990;-78
2024/03/07 01:02:53;;;;;;;;;;;2.20;99.90;;;;;;5021728;28;19989;-78
2024/03/07 01:05:19;;;;;;;;;;;2.20;99.90;;;;;;5020644;28;20001;-78
2024/03/07 01:07:48;;;;;;;;;;;2.10;99.90;;;;;;5021403;28;19993;-77
2024/03/07 01:10:14;;;;;;;;;;;2.00;99.90;;;;;;5020926;28;20774;-78
2024/03/07 01:12:39;;;;;;;;;;;2.10;99.90;;;;;;5022606;28;19997;-78
2024/03/07 01:15:05;;;;;;;;;;;2.00;99.90;;;;;;5024613;28;19997;-77
2024/03/07 01:17:31;;;;;;;;;;;2.00;99.90;;;;;;5024114;28;19990;-78
2024/03/07 01:19:58;;;;;;;;;;;2.00;99.90;;;;;;5025160;28;20088;-81
2024/03/07 01:22:23;;;;;;;;;;;2.00;99.90;;;;;;5024418;28;20641;-81
2024/03/07 01:24:50;;;;;;;;;;;2.00;99.90;;;;;;5024663;28;20005;-80
2024/03/07 01:27:16;;;;;;;;;;;1.90;99.90;;;;;;5024604;28;19993;-80
2024/03/07 01:29:42;;;;;;;;;;;1.90;99.90;;;;;;5019313;28;20536;-80
2024/03/07 01:32:08;;;;;;;;;;;2.00;99.90;;;;;;5005904;28;20027;-80
2024/03/07 01:34:34;;;;;;;;;;;2.00;99.90;;;;;;5024228;28;20353;-80
2024/03/07 01:36:59;;;;;;;;;;;1.90;99.90;;;;;;5022746;28;19990;-80
2024/03/07 01:39:25;;;;;;;;;;;1.90;99.90;;;;;;5023347;28;20810;-80
2024/03/07 01:41:50;;;;;;;;;;;1.80;99.90;;;;;;5022952;28;19993;-80
2024/03/07 01:44:16;;;;;;;;;;;1.80;99.90;;;;;;5022683;28;20036;-81
2024/03/07 01:46:41;;;;;;;;;;;1.70;99.90;;;;;;5023496;28;19992;-78
2024/03/07 01:49:08;;;;;;;;;;;1.70;99.90;;;;;;5024512;28;20040;-79
2024/03/07 01:51:34;;;;;;;;;;;1.80;99.90;;;;;;5023668;28;20112;-78
2024/03/07 01:54:00;;;;;;;;;;;1.80;99.90;;;;;;5005686;28;20716;-78
2024/03/07 01:56:26;;;;;;;;;;;1.90;99.90;;;;;;5024309;28;19996;-78
2024/03/07 01:58:51;;;;;;;;;;;2.00;99.90;;;;;;5024404;28;19990;-79
2024/03/07 02:01:17;;;;;;;;;;;2.00;99.90;;;;;;5029157;28;19993;-79
2024/03/07 02:03:43;;;;;;;;;;;2.10;99.80;;;;;;5025433;28;19993;-77
2024/03/07 02:06:08;;;;;;;;;;;1.90;99.90;;;;;;5022861;28;19994;-78
2024/03/07 02:08:34;;;;;;;;;;;1.80;99.90;;;;;;5021639;28;20084;-77
2024/03/07 02:11:00;;;;;;;;;;;1.60;99.90;;;;;;5014127;28;20449;-77
2024/03/07 02:13:26;;;;;;;;;;;1.60;99.90;;;;;;5019347;28;19989;-77
2024/03/07 02:15:52;;;;;;;;;;;1.60;99.90;;;;;;5023793;28;19989;-77
2024/03/07 02:18:18;;;;;;;;;;;1.60;99.90;;;;;;5023443;28;20505;-78
2024/03/07 02:20:45;;;;;;;;;;;1.60;99.90;;;;;;5016684;28;20079;-77
2024/03/07 02:23:11;;;;;;;;;;;1.50;99.90;;;;;;5021470;28;20021;-79
2024/03/07 02:25:37;;;;;;;;;;;1.50;99.90;;;;;;5020426;28;20049;-77
2024/03/07 02:28:06;;;;;;;;;;;1.50;99.90;;;;;;5024316;28;19998;-77
2024/03/07 02:30:32;;;;;;;;;;;1.60;99.90;;;;;;5021622;28;20466;-77
2024/03/07 02:33:07;;;;;;;;;;;1.60;99.90;;;;;;5023889;28;20181;-77
2024/03/07 02:35:34;;;;;;;;;;;1.50;99.90;;;;;;5022715;28;20012;-78
2024/03/07 02:37:59;;;;;;;;;;;1.50;99.90;;;;;;5006543;28;20755;-77
2024/03/07 02:40:25;;;;;;;;;;;1.50;99.90;;;;;;5023345;28;20020;-76
2024/03/07 02:42:51;;;;;;;;;;;1.50;99.90;;;;;;5021463;28;20444;-76
2024/03/07 02:45:17;;;;;;;;;;;1.40;99.90;;;;;;5021639;28;19985;-75
2024/03/07 02:47:44;;;;;;;;;;;1.40;99.90;;;;;;5021333;28;20016;-76
2024/03/07 02:50:10;;;;;;;;;;;1.50;99.90;;;;;;5022287;28;20124;-75
2024/03/07 02:52:36;;;;;;;;;;;1.40;99.90;;;;;;5022248;28;20023;-77
2024/03/07 02:55:03;;;;;;;;;;;1.40;99.90;;;;;;5020739;28;19997;-76
2024/03/07 02:57:29;;;;;;;;;;;1.40;99.90;;;;;;5015460;28;20449;-76
2024/03/07 02:59:54;;;;;;;;;;;1.30;99.90;;;;;;5024156;28;19994;-77
2024/03/07 03:02:20;;;;;;;;;;;1.30;99.90;;;;;;5004918;28;20044;-78
2024/03/07 03:04:45;;;;;;;;;;;1.30;99.90;;;;;;5016059;28;19995;-75
2024/03/07 03:07:11;;;;;;;;;;;1.30;99.90;;;;;;5022233;28;20001;-76
2024/03/07 03:09:42;;;;;;;;;;;1.30;99.90;;;;;;5016989;28;20637;-76
2024/03/07 03:12:11;;;;;;;;;;;1.20;99.90;;;;;;5022097;28;20043;-76
2024/03/07 03:14:37;;;;;;;;;;;1.20;99.90;;;;;;5019950;28;20005;-76
2024/03/07 03:17:03;;;;;;;;;;;1.20;99.90;;;;;;5022133;28;20455;-77
2024/03/07 03:19:29;;;;;;;;;;;1.20;99.90;;;;;;5023135;28;20025;-78
2024/03/07 03:21:55;;;;;;;;;;;1.10;99.90;;;;;;5021117;28;19990;-77
2024/03/07 03:24:21;;;;;;;;;;;1.10;99.90;;;;;;5022106;28;20000;-77
2024/03/07 03:26:47;;;;;;;;;;;1.10;99.90;;;;;;5018355;28;20030;-77
2024/03/07 03:29:13;;;;;;;;;;;1.00;99.90;;;;;;5020205;28;20009;-77
2024/03/07 03:31:39;;;;;;;;;;;1.10;99.90;;;;;;5018322;28;19997;-76
2024/03/07 03:34:05;;;;;;;;;;;1.10;99.90;;;;;;5021966;28;19997;-77
2024/03/07 03:36:30;;;;;;;;;;;1.00;99.90;;;;;;5018953;28;19993;-76
2024/03/07 03:38:56;;;;;;;;;;;1.10;99.90;;;;;;5020896;28;19997;-76
2024/03/07 03:41:22;;;;;;;;;;;1.00;99.90;;;;;;5021933;28;20088;-75
2024/03/07 03:43:48;;;;;;;;;;;1.00;99.90;;;;;;5003982;28;20003;-77
2024/03/07 03:46:14;;;;;;;;;;;0.90;99.90;;;;;;5017302;28;20474;-76
2024/03/07 03:48:40;;;;;;;;;;;1.00;99.90;;;;;;5017219;28;19994;-77
2024/03/07 03:51:09;;;;;;;;;;;0.90;99.90;;;;;;5021801;28;20568;-80
2024/03/07 03:53:37;;;;;;;;;;;0.90;99.90;;;;;;5021017;28;20364;-80
2024/03/07 03:56:06;;;;;;;;;;;0.90;99.90;;;;;;5001997;28;20001;-79
2024/03/07 03:58:32;;;;;;;;;;;0.80;99.90;;;;;;5002859;28;20022;-79
2024/03/07 04:01:00;;;;;;;;;;;0.80;99.90;;;;;;5019123;28;20044;-79
2024/03/07 04:03:26;;;;;;;;;;;0.70;99.90;;;;;;5023479;28;20458;-79
2024/03/07 04:05:52;;;;;;;;;;;0.80;99.90;;;;;;5018005;28;20074;-78
2024/03/07 04:08:19;;;;;;;;;;;0.80;99.90;;;;;;5017265;28;20107;-79
2024/03/07 04:10:45;;;;;;;;;;;0.70;99.90;;;;;;4998910;28;20022;-80
2024/03/07 04:13:11;;;;;;;;;;;0.70;99.90;;;;;;5020033;28;19994;-80
2024/03/07 04:15:36;;;;;;;;;;;0.70;99.90;;;;;;5014717;28;20010;-80
2024/03/07 04:18:02;;;;;;;;;;;0.70;99.90;;;;;;5017484;28;19993;-80
2024/03/07 04:20:28;;;;;;;;;;;0.60;99.90;;;;;;5018133;28;20071;-80
2024/03/07 04:22:55;;;;;;;;;;;0.60;99.90;;;;;;5021046;28;20043;-79
2024/03/07 04:25:21;;;;;;;;;;;0.60;99.90;;;;;;5020523;28;19998;-79
2024/03/07 04:27:46;;;;;;;;;;;0.60;99.90;;;;;;5016103;28;20036;-79
2024/03/07 04:30:12;;;;;;;;;;;0.60;99.90;;;;;;5015643;28;20013;-79
2024/03/07 04:32:38;;;;;;;;;;;0.60;99.90;;;;;;5018513;28;20264;-80
2024/03/07 04:35:07;;;;;;;;;;;0.70;99.90;;;;;;5020397;28;19997;-79
2024/03/07 04:37:39;;;;;;;;;;;0.70;99.90;;;;;;5018363;28;19989;-79
2024/03/07 04:40:14;;;;;;;;;;;0.70;99.90;;;;;;5018059;28;20120;-79
2024/03/07 04:42:44;;;;;;;;;;;0.70;99.90;;;;;;5018738;28;19990;-79
2024/03/07 04:45:12;;;;;;;;;;;0.60;99.90;;;;;;5013060;28;20096;-79
2024/03/07 04:47:38;;;;;;;;;;;0.70;99.90;;;;;;5024686;28;19990;-79
2024/03/07 04:50:04;;;;;;;;;;;0.70;99.60;;;;;;5019701;28;20013;-80
2024/03/07 04:52:30;;;;;;;;;;;0.70;99.50;;;;;;5016807;28;20000;-80
2024/03/07 04:54:55;;;;;;;;;;;0.70;99.50;;;;;;5026736;28;19993;-80
2024/03/07 04:57:21;;;;;;;;;;;0.60;99.70;;;;;;5020127;28;20072;-80
2024/03/07 04:59:46;;;;;;;;;;;0.60;99.60;;;;;;5026962;28;19989;-80
2024/03/07 05:02:12;;;;;;;;;;;0.60;99.40;;;;;;5020965;28;19986;-80
2024/03/07 05:04:37;;;;;;;;;;;0.60;99.40;;;;;;5021673;28;19989;-80
2024/03/07 05:07:03;;;;;;;;;;;0.70;99.00;;;;;;5027628;28;19993;-80
2024/03/07 05:09:29;;;;;;;;;;;0.60;99.00;;;;;;5019906;28;20017;-80
2024/03/07 05:11:55;;;;;;;;;;;0.60;99.00;;;;;;5007247;28;20684;-80
2024/03/07 05:14:21;;;;;;;;;;;0.60;99.00;;;;;;5027497;28;19989;-80
2024/03/07 05:17:04;;;;;;;;;;;0.50;99.20;;;;;;5021013;28;20013;-80
2024/03/07 05:19:33;;;;;;;;;;;0.50;99.10;;;;;;5024809;28;20609;-79
2024/03/07 05:21:59;;;;;;;;;;;0.60;98.90;;;;;;5030289;28;20100;-81
2024/03/07 05:24:24;;;;;;;;;;;0.60;99.00;;;;;;5033901;28;20080;-79
2024/03/07 05:26:51;;;;;;;;;;;0.50;99.30;;;;;;5029958;28;20001;-79
2024/03/07 05:29:17;;;;;;;;;;;0.50;99.40;;;;;;5029011;28;20006;-81
2024/03/07 05:31:49;;;;;;;;;;;0.40;99.40;;;;;;5022507;28;20767;-80
2024/03/07 05:34:23;;;;;;;;;;;0.50;99.10;;;;;;5006970;28;20059;-79
2024/03/07 05:36:48;;;;;;;;;;;0.50;99.20;;;;;;5027285;28;20499;-81
2024/03/07 05:39:14;;;;;;;;;;;0.40;99.30;;;;;;5032366;28;19989;-80
2024/03/07 05:41:41;;;;;;;;;;;0.40;99.20;;;;;;5027427;28;19986;-81
2024/03/07 05:44:09;;;;;;;;;;;0.60;98.50;;;;;;5025973;28;19989;-83
2024/03/07 05:46:41;;;;;;;;;;;0.60;98.10;;;;;;5025257;28;19985;-81
2024/03/07 05:49:10;;;;;;;;;;;0.50;98.30;;;;;;5026941;28;20122;-81
2024/03/07 05:51:36;;;;;;;;;;;0.50;98.30;;;;;;5025328;28;20861;-82
2024/03/07 05:54:06;;;;;;;;;;;0.50;98.40;;;;;;5010703;28;19993;-81
2024/03/07 05:56:38;;;;;;;;;;;0.50;98.40;;;;;;5026941;28;19985;-79
2024/03/07 05:59:09;;;;;;;;;;;0.40;98.50;;;;;;5020018;28;20000;-80
2024/03/07 06:01:38;;;;;;;;;;;0.40;98.40;;;;;;5033411;28;20441;-81
2024/03/07 06:04:07;;;;;;;;;;;0.50;98.10;;;;;;5024149;28;20005;-80
2024/03/07 06:06:33;;;;;;;;;;;0.50;97.90;;;;;;5023047;28;19982;-79
2024/03/07 06:09:01;;;;;;;;;;;0.50;97.70;;;;;;5012903;28;20028;-79
2024/03/07 06:11:26;;;;;;;;;;;0.50;97.80;;;;;;5030421;28;19993;-77
2024/03/07 06:13:52;;;;;;;;;;;0.60;97.50;;;;;;5025001;28;20511;-77
2024/03/07 06:16:18;;;;;;;;;;;0.60;97.10;;;;;;5017726;28;20490;-77
2024/03/07 06:18:47;;;;;;;;;;;0.50;97.30;;;;;;5026719;28;20365;-77
2024/03/07 06:21:13;;;;;;;;;;;0.60;97.30;;;;;;5023515;28;19989;-77
2024/03/07 06:23:39;;;;;;;;;;;0.60;97.20;;;;;;5012583;28;19997;-76
2024/03/07 06:26:12;;;;;;;;;;;0.50;97.50;;;;;;5031141;28;19993;-77
2024/03/07 06:28:38;;;;;;;;;;;0.50;97.80;;;;;;5005285;28;19989;-79
2024/03/07 06:31:07;;;;;;;;;;;0.50;97.60;;;;;;5035491;28;20056;-79
2024/03/07 06:33:33;;;;;;;;;;;1.00;97.00;;;;;;5024960;28;19996;-79
2024/03/07 06:36:00;;;;;;;;;;;1.60;94.80;;;;;;5006404;28;19993;-76
2024/03/07 06:38:26;;;;;;;;;;;1.90;93.70;;;;;;5032691;28;19994;-75
2024/03/07 06:40:52;;;;;;;;;;;2.20;92.70;;;;;;5023169;28;20354;-75
2024/03/07 06:43:18;;;;;;;;;;;2.30;92.20;;;;;;5023791;28;20001;-76
2024/03/07 06:45:45;;;;;;;;;;;2.60;91.40;;;;;;5029772;28;19990;-75
2024/03/07 06:48:14;;;;;;;;;;;2.80;90.90;;;;;;5030095;28;20000;-78
2024/03/07 06:50:40;;;;;;;;;;;3.00;90.20;;;;;;5009165;28;20481;-76
2024/03/07 06:53:09;;;;;;;;;;;3.20;89.00;;;;;;5024527;28;19997;-78
2024/03/07 06:55:35;;;;;;;;;;;3.50;87.80;;;;;;5022244;28;20025;-76
2024/03/07 06:58:00;;;;;;;;;;;3.60;86.10;;;;;;5024571;28;21070;-81
2024/03/07 07:00:26;;;;;;;;;;;3.80;85.80;;;;;;5023823;28;19997;-76
2024/03/07 07:02:54;;;;;;;;;;;4.00;83.90;;;;;;5021494;28;20991;-76
2024/03/07 07:05:20;;;;;;;;;;;4.10;84.10;;;;;;5022735;28;20532;-77
2024/03/07 07:07:46;;;;;;;;;;;4.30;83.30;;;;;;5022440;28;19993;-78
2024/03/07 07:10:17;;;;;;;;;;;4.20;81.90;;;;;;5026000;28;20017;-77
2024/03/07 07:12:44;;;;;;;;;;;3.70;84.70;;;;;;5032447;28;20602;-77
2024/03/07 07:15:10;;;;;;;;;;;3.60;85.10;;;;;;5023824;28;19990;-78
2024/03/07 07:17:36;;;;;;;;;;;4.20;83.60;;;;;;5021926;28;19990;-79
2024/03/07 07:20:06;;;;;;;;;;;4.50;81.90;;;;;;5004999;28;20040;-78
2024/03/07 07:22:31;;;;;;;;;;;4.70;81.20;;;;;;5021965;28;19997;-79
2024/03/07 07:24:57;;;;;;;;;;;4.90;81.00;;;;;;5023303;28;19990;-73
2024/03/07 07:27:23;;;;;;;;;;;4.90;79.60;;;;;;5025988;28;19993;-74
2024/03/07 07:29:48;;;;;;;;;;;5.10;80.60;;;;;;5025549;28;20036;-82
2024/03/07 07:32:14;;;;;;;;;;;5.50;78.90;;;;;;5026445;28;19993;-78
2024/03/07 07:34:39;;;;;;;;;;;5.70;77.60;;;;;;5025817;28;20445;-74
2024/03/07 07:37:05;;;;;;;;;;;5.70;77.40;;;;;;5027116;28;20033;-74
2024/03/07 07:39:31;;;;;;;;;;;5.80;76.50;;;;;;5027403;28;19993;-82
2024/03/07 07:41:57;;;;;;;;;;;6.10;76.40;;;;;;5026637;28;20005;-75
2024/03/07 07:44:22;;;;;;;;;;;6.40;76.00;;;;;;5027345;28;20016;-74
2024/03/07 07:46:49;;;;;;;;;;;6.50;74.30;;;;;;5029123;28;20727;-77
2024/03/07 07:49:15;;;;;;;;;;;6.90;74.10;;;;;;5024129;28;20477;-74
2024/03/07 07:51:41;;;;;;;;;;;6.90;74.30;;;;;;5005329;28;20670;-78
2024/03/07 07:54:09;;;;;;;;;;;7.20;73.80;;;;;;5022479;28;20107;-78
2024/03/07 07:56:35;;;;;;;;;;;7.10;72.60;;;;;;5022458;28;20088;-77
2024/03/07 07:59:01;;;;;;;;;;;7.40;73.10;;;;;;5023498;28;20083;-80
2024/03/07 08:01:27;;;;;;;;;;;7.80;71.70;;;;;;5022795;28;20072;-77
2024/03/07 08:03:52;;;;;;;;;;;7.80;71.10;;;;;;5021941;28;19992;-75
2024/03/07 08:06:18;;;;;;;;;;;8.30;69.90;;;;;;5022476;28;19990;-80
2024/03/07 08:08:44;;;;;;;;;;;8.30;68.90;;;;;;5022364;28;20477;-78
2024/03/07 08:11:11;;;;;;;;;;;7.90;69.50;;;;;;5022734;28;20021;-76
2024/03/07 08:13:37;;;;;;;;;;;8.10;69.90;;;;;;5021695;28;20000;-77
2024/03/07 08:16:03;;;;;;;;;;;8.50;68.90;;;;;;5022197;28;19985;-77
2024/03/07 08:18:29;;;;;;;;;;;8.50;67.00;;;;;;5021285;28;20043;-77
2024/03/07 08:20:55;;;;;;;;;;;9.10;66.80;;;;;;5022077;28;20044;-76
2024/03/07 08:23:22;;;;;;;;;;;9.00;66.50;;;;;;5025364;28;19993;-80
2024/03/07 08:25:48;;;;;;;;;;;9.10;65.40;;;;;;5025650;28;19990;-78
2024/03/07 08:28:13;;;;;;;;;;;9.50;64.60;;;;;;5027542;28;20527;-76
2024/03/07 08:30:39;;;;;;;;;;;9.50;64.60;;;;;;5025316;28;20072;-75
2024/03/07 08:33:05;;;;;;;;;;;9.80;64.70;;;;;;5025374;28;20047;-74
2024/03/07 08:35:30;;;;;;;;;;;10.10;63.00;;;;;;5025154;28;20073;-82
2024/03/07 08:37:57;;;;;;;;;;;9.20;62.60;;;;;;5027558;28;20078;-81
2024/03/07 08:40:23;;;;;;;;;;;9.80;62.90;;;;;;5025526;28;20029;-76
2024/03/07 08:42:50;;;;;;;;;;;10.70;61.90;;;;;;5025878;28;20436;-76
2024/03/07 08:45:19;;;;;;;;;;;10.60;61.60;;;;;;5024423;28;19993;-79
2024/03/07 08:47:46;;;;;;;;;;;10.40;59.90;;;;;;5025797;28;19986;-74
2024/03/07 08:50:13;;;;;;;;;;;10.10;62.60;;;;;;5026994;28;20012;-82
2024/03/07 08:52:39;;;;;;;;;;;10.00;61.10;;;;;;5024867;28;20001;-78
2024/03/07 08:55:05;;;;;;;;;;;9.30;61.60;;;;;;5026018;28;20407;-76
2024/03/07 08:57:31;;;;;;;;;;;9.50;64.80;;;;;;5025802;28;20051;-77
2024/03/07 08:59:57;;;;;;;;;;;10.10;63.10;;;;;;5024788;28;19989;-81
2024/03/07 09:02:22;;;;;;;;;;;10.40;62.30;;;;;;5025541;28;19996;-75
2024/03/07 09:04:48;;;;;;;;;;;11.10;60.80;;;;;;5019518;28;20001;-77
2024/03/07 09:07:17;;;;;;;;;;;11.90;58.80;;;;;;5025032;28;20007;-75
2024/03/07 09:09:43;;;;;;;;;;;12.00;56.50;;;;;;5024100;28;20028;-80
2024/03/07 09:12:09;;;;;;;;;;;12.50;56.70;;;;;;5025151;28;19998;-77
2024/03/07 09:14:35;;;;;;;;;;;12.40;55.00;;;;;;5024951;28;19991;-74
2024/03/07 09:17:01;;;;;;;;;;;12.20;57.00;;;;;;5011217;28;20004;-80
2024/03/07 09:19:27;;;;;;;;;;;12.20;57.70;;;;;;5025107;28;19990;-75
2024/03/07 09:21:53;;;;;;;;;;;11.50;58.90;;;;;;5024505;28;20607;-74
2024/03/07 09:24:21;;;;;;;;;;;11.30;57.80;;;;;;5025026;28;20514;-79
2024/03/07 09:26:50;;;;;;;;;;;11.40;58.00;;;;;;5024564;28;19990;-75
2024/03/07 09:29:16;;;;;;;;;;;10.80;58.70;;;;;;5025069;28;20028;-74
2024/03/07 09:31:41;;;;;;;;;;;11.80;59.40;;;;;;5025088;28;19994;-78
2024/03/07 09:34:08;;;;;;;;;;;12.60;56.70;;;;;;5023860;28;19997;-75
2024/03/07 09:36:33;;;;;;;;;;;11.80;55.90;;;;;;5025990;28;20029;-79
2024/03/07 09:38:59;;;;;;;;;;;10.60;58.10;;;;;;5024398;28;20069;-77
2024/03/07 09:41:25;;;;;;;;;;;10.60;61.30;;;;;;5024345;28;20073;-77
2024/03/07 09:43:55;;;;;;;;;;;12.00;60.30;;;;;;5023692;28;20590;-78
2024/03/07 09:46:23;;;;;;;;;;;12.90;55.70;;;;;;5024521;28;20001;-76
2024/03/07 09:48:52;;;;;;;;;;;14.00;53.50;;;;;;5024376;28;20484;-78
2024/03/07 09:51:18;;;;;;;;;;;14.70;51.60;;;;;;5023610;28;19997;-76
2024/03/07 09:53:45;;;;;;;;;;;15.20;52.90;;;;;;5024534;28;20029;-76
2024/03/07 09:56:13;;;;;;;;;;;15.00;52.80;;;;;;5029131;28;19990;-75
2024/03/07 09:58:39;;;;;;;;;;;15.00;52.20;;;;;;5024399;28;20017;-77
2024/03/07 10:01:09;;;;;;;;;;;15.20;48.90;;;;;;5024054;28;19990;-74
2024/03/07 10:03:35;;;;;;;;;;;14.70;51.30;;;;;;5023902;28;20381;-76
2024/03/07 10:06:01;;;;;;;;;;;13.90;51.50;;;;;;5023806;28;20001;-80
2024/03/07 10:08:27;;;;;;;;;;;13.40;54.60;;;;;;5023439;28;20024;-78
2024/03/07 10:10:54;;;;;;;;;;;13.40;55.70;;;;;;5005286;28;20116;-74
2024/03/07 10:13:22;;;;;;;;;;;13.20;54.70;;;;;;5024208;28;19993;-74
2024/03/07 10:15:48;;;;;;;;;;;13.40;53.70;;;;;;5023892;28;20084;-77
2024/03/07 10:18:15;;;;;;;;;;;13.40;54.40;;;;;;5024128;28;20124;-77
2024/03/07 10:20:42;;;;;;;;;;;13.80;55.00;;;;;;5024187;28;19994;-76
2024/03/07 10:23:08;;;;;;;;;;;13.30;53.40;;;;;;5024060;28;19997;-75
2024/03/07 10:25:33;;;;;;;;;;;13.20;51.20;;;;;;5023342;28;20036;-77
2024/03/07 10:28:00;;;;;;;;;;;13.40;55.80;;;;;;5023828;28;19989;-78
2024/03/07 10:30:26;;;;;;;;;;;13.90;51.70;;;;;;5023954;28;20018;-78
2024/03/07 10:32:55;;;;;;;;;;;14.20;50.70;;;;;;5025631;28;20021;-77
2024/03/07 10:35:22;;;;;;;;;;;13.90;50.40;;;;;;5024224;28;19994;-76
2024/03/07 10:37:48;;;;;;;;;;;13.90;52.90;;;;;;5025459;28;19990;-76
2024/03/07 10:40:17;;;;;;;;;;;14.00;52.20;;;;;;5024381;28;19990;-76
2024/03/07 10:42:51;;;;;;;;;;;13.70;51.90;;;;;;5028125;28;19990;-78
2024/03/07 10:45:18;;;;;;;;;;;13.90;50.40;;;;;;5026915;28;19996;-75
2024/03/07 10:47:45;;;;;;;;;;;13.30;50.30;;;;;;5023073;28;19997;-77
2024/03/07 10:50:16;;;;;;;;;;;13.50;50.40;;;;;;5023815;28;20005;-81
2024/03/07 10:52:58;;;;;;;;;;;13.20;49.30;;;;;;5022698;28;20428;-76
2024/03/07 10:55:36;;;;;;;;;;;13.20;49.40;;;;;;5022600;28;19990;-78
2024/03/07 10:58:06;;;;;;;;;;;13.40;49.40;;;;;;5021278;28;20104;-76
2024/03/07 11:00:45;;;;;;;;;;;13.60;49.90;;;;;;5023081;28;20047;-79
2024/03/07 11:03:11;;;;;;;;;;;13.70;49.70;;;;;;5022418;28;19986;-80
2024/03/07 11:05:37;;;;;;;;;;;13.50;50.00;;;;;;5022386;28;20043;-77
2024/03/07 11:08:12;;;;;;;;;;;13.20;50.90;;;;;;5027782;28;20076;-78
2024/03/07 11:10:38;;;;;;;;;;;13.20;50.00;;;;;;5022753;28;20080;-80
2024/03/07 11:13:05;;;;;;;;;;;13.30;50.30;;;;;;5022616;28;20085;-75
2024/03/07 11:15:32;;;;;;;;;;;13.60;51.00;;;;;;5023267;28;20129;-79
2024/03/07 11:17:59;;;;;;;;;;;14.00;51.50;;;;;;5022884;28;20532;-78
2024/03/07 11:20:34;;;;;;;;;;;13.80;50.00;;;;;;5004706;28;20067;-77
2024/03/07 11:22:59;;;;;;;;;;;14.10;49.90;;;;;;5016108;28;19989;-74
2024/03/07 11:25:26;;;;;;;;;;;14.10;50.30;;;;;;5023221;28;20043;-76
2024/03/07 11:27:56;;;;;;;;;;;14.30;53.00;;;;;;5022417;28;19986;-76
2024/03/07 11:30:22;;;;;;;;;;;14.20;52.00;;;;;;5022479;28;20005;-79
2024/03/07 11:32:50;;;;;;;;;;;14.20;51.80;;;;;;5016726;28;20026;-76
2024/03/07 11:35:15;;;;;;;;;;;14.30;52.10;;;;;;5021925;28;19993;-74
2024/03/07 11:37:47;;;;;;;;;;;14.20;54.20;;;;;;5022856;28;19997;-80
2024/03/07 11:40:33;;;;;;;;;;;13.90;50.50;;;;;;5022951;28;19997;-81
2024/03/07 11:43:00;;;;;;;;;;;14.00;51.70;;;;;;5004332;28;20001;-80
2024/03/07 11:45:27;;;;;;;;;;;13.80;53.40;;;;;;5021191;28;20047;-80
2024/03/07 11:48:09;;;;;;;;;;;13.70;53.80;;;;;;5022211;28;20026;-75
2024/03/07 11:50:38;;;;;;;;;;;13.50;52.30;;;;;;5022886;28;20424;-75
2024/03/07 11:53:08;;;;;;;;;;;13.50;52.70;;;;;;5021821;28;20004;-78
2024/03/07 11:55:41;;;;;;;;;;;13.10;49.50;;;;;;5021775;28;19994;-77
2024/03/07 11:58:12;;;;;;;;;;;13.10;52.20;;;;;;5021093;28;19993;-75
2024/03/07 12:00:42;;;;;;;;;;;13.10;51.10;;;;;;5022251;28;20056;-75
2024/03/07 12:03:08;;;;;;;;;;;12.90;51.10;;;;;;5021762;28;20458;-75
2024/03/07 12:05:34;;;;;;;;;;;13.00;51.60;;;;;;5021135;28;20005;-79
2024/03/07 12:08:00;;;;;;;;;;;13.10;52.50;;;;;;5021995;28;19993;-77
2024/03/07 12:10:26;;;;;;;;;;;13.00;50.70;;;;;;5021476;28;20580;-76
2024/03/07 12:12:51;;;;;;;;;;;12.90;51.30;;;;;;5021974;28;20056;-76
2024/03/07 12:15:20;;;;;;;;;;;12.80;52.10;;;;;;5021869;28;19990;-74
2024/03/07 12:17:49;;;;;;;;;;;12.80;50.30;;;;;;5021842;28;20350;-81
2024/03/07 12:20:24;;;;;;;;;;;12.80;51.20;;;;;;5022660;28;20001;-75
2024/03/07 12:22:53;;;;;;;;;;;13.00;51.30;;;;;;5021930;28;20076;-77
2024/03/07 12:25:21;;;;;;;;;;;13.20;50.80;;;;;;5022612;28;19997;-76
2024/03/07 12:28:06;;;;;;;;;;;13.50;51.60;;;;;;5014538;28;20088;-75
2024/03/07 12:30:33;;;;;;;;;;;13.80;51.90;;;;;;5019625;28;20631;-78
2024/03/07 12:32:59;;;;;;;;;;;13.90;53.30;;;;;;5022254;28;20108;-80
2024/03/07 12:35:25;;;;;;;;;;;13.90;54.40;;;;;;5004219;28;19993;-75
2024/03/07 12:37:52;;;;;;;;;;;13.90;53.10;;;;;;5024285;28;20512;-82
2024/03/07 12:40:20;;;;;;;;;;;13.90;50.90;;;;;;5022270;28;19990;-75
2024/03/07 12:42:54;;;;;;;;;;;13.70;51.30;;;;;;5022299;28;20092;-76
2024/03/07 12:45:20;;;;;;;;;;;13.70;50.60;;;;;;5022766;28;20076;-75
2024/03/07 12:47:47;;;;;;;;;;;13.50;50.90;;;;;;5008491;28;20088;-82
2024/03/07 12:50:13;;;;;;;;;;;13.50;50.80;;;;;;5029494;28;20469;-77
2024/03/07 12:52:40;;;;;;;;;;;13.50;50.90;;;;;;5021397;28;20002;-82
2024/03/07 12:55:06;;;;;;;;;;;13.50;49.90;;;;;;5028829;28;20035;-74
2024/03/07 12:57:31;;;;;;;;;;;13.50;49.30;;;;;;5021771;28;20443;-77
2024/03/07 12:59:57;;;;;;;;;;;13.50;49.20;;;;;;5022074;28;19990;-76
2024/03/07 13:02:27;;;;;;;;;;;13.30;49.40;;;;;;5022196;28;19990;-75
2024/03/07 13:04:52;;;;;;;;;;;13.30;53.70;;;;;;5021717;28;20072;-76
2024/03/07 13:07:18;;;;;;;;;;;13.30;50.60;;;;;;5022574;28;20544;-77
2024/03/07 13:09:44;;;;;;;;;;;13.40;49.80;;;;;;5024655;28;20551;-77
2024/03/07 13:12:09;;;;;;;;;;;13.50;50.10;;;;;;5024706;28;20069;-75
2024/03/07 13:14:35;;;;;;;;;;;13.30;49.60;;;;;;5025372;28;19994;-80
2024/03/07 13:17:04;;;;;;;;;;;13.10;49.10;;;;;;5007061;28;20073;-79
2024/03/07 13:19:30;;;;;;;;;;;13.20;50.10;;;;;;5025277;28;19990;-74
2024/03/07 13:21:56;;;;;;;;;;;13.10;49.50;;;;;;5025246;28;19993;-78
2024/03/07 13:24:22;;;;;;;;;;;13.10;50.40;;;;;;5025218;28;20088;-78
2024/03/07 13:26:50;;;;;;;;;;;13.00;50.20;;;;;;5033051;28;19997;-76
2024/03/07 13:29:16;;;;;;;;;;;13.30;51.70;;;;;;5025634;28;20000;-78
2024/03/07 13:31:43;;;;;;;;;;;13.50;53.00;;;;;;5025054;28;19994;-77
2024/03/07 13:34:17;;;;;;;;;;;13.80;54.20;;;;;;5025242;28;20850;-82
2024/03/07 13:36:44;;;;;;;;;;;14.00;52.90;;;;;;5025719;28;20084;-78
2024/03/07 13:39:11;;;;;;;;;;;13.80;51.90;;;;;;5025249;28;20036;-75
2024/03/07 13:41:37;;;;;;;;;;;13.70;53.50;;;;;;5025221;28;19989;-75
2024/03/07 13:44:03;;;;;;;;;;;13.70;52.50;;;;;;5024729;28;20043;-75
2024/03/07 13:46:29;;;;;;;;;;;13.60;54.10;;;;;;5007609;28;19994;-79
2024/03/07 13:49:00;;;;;;;;;;;13.50;53.70;;;;;;5024697;28;19990;-79
2024/03/07 13:51:27;;;;;;;;;;;13.50;53.90;;;;;;5024870;28;20040;-75
2024/03/07 13:54:08;;;;;;;;;;;13.50;53.90;;;;;;5024534;28;19996;-74
2024/03/07 13:56:57;;;;;;;;;;;13.30;53.30;;;;;;5025242;28;20028;-77
2024/03/07 13:59:30;;;;;;;;;;;13.30;53.00;;;;;;4995119;28;19994;-75
2024/03/07 14:02:13;;;;;;;;;;;13.30;54.40;;;;;;5024463;28;19994;-76
2024/03/07 14:04:54;;;;;;;;;;;13.30;52.80;;;;;;5023818;28;20748;-78
2024/03/07 14:07:38;;;;;;;;;;;13.20;52.90;;;;;;5024290;28;20000;-76
2024/03/07 14:10:21;;;;;;;;;;;13.00;52.10;;;;;;5026370;28;20720;-78
2024/03/07 14:13:04;;;;;;;;;;;13.20;53.80;;;;;;5024125;28;20000;-75
2024/03/07 14:15:42;;;;;;;;;;;13.50;52.10;;;;;;5024303;28;19996;-80
2024/03/07 14:18:09;;;;;;;;;;;13.20;52.50;;;;;;5017915;28;19996;-75
2024/03/07 14:20:44;;;;;;;;;;;13.30;52.10;;;;;;5022913;28;20468;-77
2024/03/07 14:23:26;;;;;;;;;;;13.30;52.30;;;;;;5024083;28;19989;-79
2024/03/07 14:26:10;;;;;;;;;;;13.40;50.30;;;;;;5023841;28;19989;-77
2024/03/07 14:28:39;;;;;;;;;;;13.20;52.00;;;;;;5024611;28;20036;-77